sensor_id;sensor_type;location;lat;lon;timestamp;pressure;altitude;pressure_sealevel;temperature;humidity
65131;BME280;51709;54.912;8.316;2023-02-11T00:02:07;102448.56;;;6.20;84.48
65131;BME280;51709;54.912;8.316;2023-02-11T00:07:28;102462.22;;;6.24;84.38
65131;BME280;51709;54.912;8.316;2023-02-11T00:12:49;102460.66;;;6.29;84.21
65131;BME280;51709;54.912;8.316;2023-02-11T00:18:10;102453.69;;;6.22;84.53
65131;BME280;51709;54.912;8.316;2023-02-11T00:23:31;102468.13;;;6.21;84.74
65131;BME280;51709;54.912;8.316;2023-02-11T00:28:52;102459.66;;;6.22;84.89
65131;BME280;51709;54.912;8.316;2023-02-11T00:34:13;102446.09;;;6.23;85.16
65131;BME280;51709;54.912;8.316;2023-02-11T00:39:33;102450.56;;;6.34;84.73
65131;BME280;51709;54.912;8.316;2023-02-11T00:44:55;102455.50;;;6.27;85.08
65131;BME280;51709;54.912;8.316;2023-02-11T00:50:16;102458.84;;;6.25;85.33
65131;BME280;51709;54.912;8.316;2023-02-11T00:55:37;102451.41;;;6.34;85.06
65131;BME280;51709;54.912;8.316;2023-02-11T01:00:58;102445.41;;;6.32;85.17
65131;BME280;51709;54.912;8.316;2023-02-11T01:06:18;102438.59;;;6.31;85.18
65131;BME280;51709;54.912;8.316;2023-02-11T01:11:39;102442.94;;;6.35;85.03
65131;BME280;51709;54.912;8.316;2023-02-11T01:17:00;102442.91;;;6.34;85.13
65131;BME280;51709;54.912;8.316;2023-02-11T01:22:20;102437.94;;;6.40;85.15
65131;BME280;51709;54.912;8.316;2023-02-11T01:27:42;102437.97;;;6.41;85.21
65131;BME280;51709;54.912;8.316;2023-02-11T01:33:02;102435.38;;;6.40;85.04
65131;BME280;51709;54.912;8.316;2023-02-11T01:38:24;102423.38;;;6.36;85.26
65131;BME280;51709;54.912;8.316;2023-02-11T01:43:47;102407.25;;;6.37;85.18
65131;BME280;51709;54.912;8.316;2023-02-11T01:49:17;102429.19;;;6.28;85.50
65131;BME280;51709;54.912;8.316;2023-02-11T01:54:45;102398.78;;;6.38;85.21
65131;BME280;51709;54.912;8.316;2023-02-11T02:00:37;102405.53;;;6.36;85.36
65131;BME280;51709;54.912;8.316;2023-02-11T02:06:04;102398.75;;;6.36;85.48
65131;BME280;51709;54.912;8.316;2023-02-11T02:11:27;102399.63;;;6.37;85.58
65131;BME280;51709;54.912;8.316;2023-02-11T02:16:49;102413.19;;;6.36;85.49
65131;BME280;51709;54.912;8.316;2023-02-11T02:27:51;102399.56;;;6.34;85.74
65131;BME280;51709;54.912;8.316;2023-02-11T02:33:23;102377.50;;;6.36;85.64
65131;BME280;51709;54.912;8.316;2023-02-11T02:39:04;102386.94;;;6.40;85.70
65131;BME280;51709;54.912;8.316;2023-02-11T02:44:29;102385.25;;;6.40;85.78
65131;BME280;51709;54.912;8.316;2023-02-11T02:49:50;102409.06;;;6.41;85.93
65131;BME280;51709;54.912;8.316;2023-02-11T02:55:32;102385.22;;;6.39;85.93
65131;BME280;51709;54.912;8.316;2023-02-11T03:11:53;102380.94;;;6.38;86.03
65131;BME280;51709;54.912;8.316;2023-02-11T03:17:15;102374.25;;;6.43;85.83
65131;BME280;51709;54.912;8.316;2023-02-11T03:23:06;102387.03;;;6.44;85.76
65131;BME280;51709;54.912;8.316;2023-02-11T03:33:58;102370.75;;;6.38;85.88
65131;BME280;51709;54.912;8.316;2023-02-11T03:39:29;102346.88;;;6.34;86.09
65131;BME280;51709;54.912;8.316;2023-02-11T03:44:57;102342.66;;;6.35;86.04
65131;BME280;51709;54.912;8.316;2023-02-11T03:50:20;102326.38;;;6.29;86.45
65131;BME280;51709;54.912;8.316;2023-02-11T03:55:41;102339.97;;;6.30;86.71
65131;BME280;51709;54.912;8.316;2023-02-11T04:01:03;102346.06;;;6.37;86.69
65131;BME280;51709;54.912;8.316;2023-02-11T04:06:25;102359.69;;;6.37;86.80
65131;BME280;51709;54.912;8.316;2023-02-11T04:11:46;102370.06;;;6.45;86.59
65131;BME280;51709;54.912;8.316;2023-02-11T04:17:06;102350.50;;;6.45;86.51
65131;BME280;51709;54.912;8.316;2023-02-11T04:22:26;102371.81;;;6.47;86.46
65131;BME280;51709;54.912;8.316;2023-02-11T04:27:47;102353.06;;;6.45;86.96
65131;BME280;51709;54.912;8.316;2023-02-11T04:33:11;102354.75;;;6.45;86.82
65131;BME280;51709;54.912;8.316;2023-02-11T04:38:32;102339.31;;;6.39;87.09
65131;BME280;51709;54.912;8.316;2023-02-11T04:43:53;102361.38;;;6.37;87.28
65131;BME280;51709;54.912;8.316;2023-02-11T04:49:15;102361.47;;;6.41;87.00
65131;BME280;51709;54.912;8.316;2023-02-11T05:09:11;102362.19;;;6.36;87.59
65131;BME280;51709;54.912;8.316;2023-02-11T05:14:32;102340.84;;;6.30;87.82
65131;BME280;51709;54.912;8.316;2023-02-11T05:19:52;102346.06;;;6.37;87.60
65131;BME280;51709;54.912;8.316;2023-02-11T05:25:13;102346.78;;;6.29;87.95
65131;BME280;51709;54.912;8.316;2023-02-11T05:30:36;102348.41;;;6.26;87.94
65131;BME280;51709;54.912;8.316;2023-02-11T05:36:01;102375.56;;;6.25;88.04
65131;BME280;51709;54.912;8.316;2023-02-11T05:41:23;102381.56;;;6.27;87.92
65131;BME280;51709;54.912;8.316;2023-02-11T05:46:44;102390.28;;;6.37;87.56
65131;BME280;51709;54.912;8.316;2023-02-11T05:52:05;102387.69;;;6.36;87.46
65131;BME280;51709;54.912;8.316;2023-02-11T05:57:25;102375.75;;;6.33;87.64
65131;BME280;51709;54.912;8.316;2023-02-11T06:02:46;102359.53;;;6.31;87.81
65131;BME280;51709;54.912;8.316;2023-02-11T06:08:07;102388.47;;;6.31;87.83
65131;BME280;51709;54.912;8.316;2023-02-11T06:13:27;102377.53;;;6.37;87.72
65131;BME280;51709;54.912;8.316;2023-02-11T06:18:48;102376.63;;;6.34;87.75
65131;BME280;51709;54.912;8.316;2023-02-11T06:24:08;102385.94;;;6.33;87.79
65131;BME280;51709;54.912;8.316;2023-02-11T06:29:29;102400.41;;;6.32;87.85
65131;BME280;51709;54.912;8.316;2023-02-11T06:34:50;102410.53;;;6.31;87.86
65131;BME280;51709;54.912;8.316;2023-02-11T06:40:11;102418.88;;;6.24;88.04
65131;BME280;51709;54.912;8.316;2023-02-11T06:45:32;102407.84;;;6.23;87.97
65131;BME280;51709;54.912;8.316;2023-02-11T06:50:53;102421.44;;;6.24;87.89
65131;BME280;51709;54.912;8.316;2023-02-11T06:56:18;102409.41;;;6.18;88.13
65131;BME280;51709;54.912;8.316;2023-02-11T07:01:39;102417.09;;;6.20;87.91
65131;BME280;51709;54.912;8.316;2023-02-11T07:07:00;102414.53;;;6.20;87.96
65131;BME280;51709;54.912;8.316;2023-02-11T07:12:21;102412.03;;;6.21;87.91
65131;BME280;51709;54.912;8.316;2023-02-11T07:17:41;102418.88;;;6.22;87.75
65131;BME280;51709;54.912;8.316;2023-02-11T07:23:01;102431.72;;;6.27;87.59
65131;BME280;51709;54.912;8.316;2023-02-11T07:28:22;102443.69;;;6.31;87.51
65131;BME280;51709;54.912;8.316;2023-02-11T07:33:43;102462.41;;;6.31;87.58
65131;BME280;51709;54.912;8.316;2023-02-11T07:39:05;102459.88;;;6.31;87.68
65131;BME280;51709;54.912;8.316;2023-02-11T07:44:25;102448.03;;;6.35;87.55
65131;BME280;51709;54.912;8.316;2023-02-11T07:49:46;102464.25;;;6.39;87.72
65131;BME280;51709;54.912;8.316;2023-02-11T07:55:07;102477.66;;;6.30;87.93
65131;BME280;51709;54.912;8.316;2023-02-11T08:00:29;102486.38;;;6.40;87.66
65131;BME280;51709;54.912;8.316;2023-02-11T08:05:50;102491.03;;;6.56;87.28
65131;BME280;51709;54.912;8.316;2023-02-11T08:11:19;102504.53;;;6.54;87.37
65131;BME280;51709;54.912;8.316;2023-02-11T08:16:42;102533.22;;;6.80;86.99
65131;BME280;51709;54.912;8.316;2023-02-11T08:22:02;102559.06;;;6.96;86.73
65131;BME280;51709;54.912;8.316;2023-02-11T08:27:24;102581.44;;;7.07;86.52
65131;BME280;51709;54.912;8.316;2023-02-11T08:32:46;102593.34;;;7.07;86.34
65131;BME280;51709;54.912;8.316;2023-02-11T08:38:06;102601.94;;;7.11;86.29
65131;BME280;51709;54.912;8.316;2023-02-11T08:43:28;102614.72;;;7.11;86.44
65131;BME280;51709;54.912;8.316;2023-02-11T08:48:50;102624.94;;;7.12;86.31
65131;BME280;51709;54.912;8.316;2023-02-11T08:54:11;102622.41;;;7.12;86.35
65131;BME280;51709;54.912;8.316;2023-02-11T08:59:31;102635.25;;;7.15;86.06
65131;BME280;51709;54.912;8.316;2023-02-11T09:04:52;102641.34;;;7.22;86.04
65131;BME280;51709;54.912;8.316;2023-02-11T09:10:13;102655.53;;;7.49;85.61
65131;BME280;51709;54.912;8.316;2023-02-11T09:15:34;102655.13;;;7.71;84.94
65131;BME280;51709;54.912;8.316;2023-02-11T09:21:03;102651.16;;;7.86;84.81
65131;BME280;51709;54.912;8.316;2023-02-11T09:26:27;102647.72;;;7.84;84.87
65131;BME280;51709;54.912;8.316;2023-02-11T09:31:50;102660.16;;;7.67;85.46
65131;BME280;51709;54.912;8.316;2023-02-11T09:37:10;102682.50;;;7.76;85.36
65131;BME280;51709;54.912;8.316;2023-02-11T09:42:52;102673.63;;;7.58;85.68
65131;BME280;51709;54.912;8.316;2023-02-11T09:48:23;102680.31;;;7.51;85.96
65131;BME280;51709;54.912;8.316;2023-02-11T09:53:44;102688.72;;;7.47;85.83
65131;BME280;51709;54.912;8.316;2023-02-11T09:59:09;102689.69;;;7.52;85.80
65131;BME280;51709;54.912;8.316;2023-02-11T10:27:25;102737.53;;;7.60;85.27
65131;BME280;51709;54.912;8.316;2023-02-11T10:32:51;102713.72;;;7.62;85.44
65131;BME280;51709;54.912;8.316;2023-02-11T10:38:13;102735.81;;;7.60;85.38
65131;BME280;51709;54.912;8.316;2023-02-11T10:43:35;102758.06;;;7.64;85.36
65131;BME280;51709;54.912;8.316;2023-02-11T10:48:56;102765.66;;;7.61;85.45
65131;BME280;51709;54.912;8.316;2023-02-11T10:54:17;102759.88;;;7.68;85.26
65131;BME280;51709;54.912;8.316;2023-02-11T10:59:40;102752.75;;;7.55;85.57
65131;BME280;51709;54.912;8.316;2023-02-11T11:05:05;102726.22;;;7.48;85.58
65131;BME280;51709;54.912;8.316;2023-02-11T11:10:48;102725.13;;;7.38;85.67
65131;BME280;51709;54.912;8.316;2023-02-11T11:16:33;102736.06;;;7.71;85.03
65131;BME280;51709;54.912;8.316;2023-02-11T11:21:55;102746.09;;;7.62;85.08
65131;BME280;51709;54.912;8.316;2023-02-11T11:27:19;102755.41;;;7.60;85.30
65131;BME280;51709;54.912;8.316;2023-02-11T11:32:41;102752.94;;;7.63;85.26
65131;BME280;51709;54.912;8.316;2023-02-11T11:38:03;102763.16;;;7.63;85.47
65131;BME280;51709;54.912;8.316;2023-02-11T11:43:24;102759.78;;;7.64;85.41
65131;BME280;51709;54.912;8.316;2023-02-11T11:48:46;102774.22;;;7.63;85.38
65131;BME280;51709;54.912;8.316;2023-02-11T11:54:14;102784.44;;;7.62;85.49
65131;BME280;51709;54.912;8.316;2023-02-11T11:59:37;102775.84;;;7.60;85.52
65131;BME280;51709;54.912;8.316;2023-02-11T12:05:16;102786.19;;;7.64;85.37
65131;BME280;51709;54.912;8.316;2023-02-11T12:22:02;102785.47;;;7.70;85.10
65131;BME280;51709;54.912;8.316;2023-02-11T12:44:39;102782.81;;;7.65;85.21
65131;BME280;51709;54.912;8.316;2023-02-11T12:55:53;102799.81;;;7.65;85.28
65131;BME280;51709;54.912;8.316;2023-02-11T13:01:20;102813.66;;;7.75;84.94
65131;BME280;51709;54.912;8.316;2023-02-11T13:06:55;102813.59;;;7.71;85.15
65131;BME280;51709;54.912;8.316;2023-02-11T13:12:17;102820.81;;;7.90;84.72
65131;BME280;51709;54.912;8.316;2023-02-11T13:23:54;102842.06;;;7.87;84.74
65131;BME280;51709;54.912;8.316;2023-02-11T13:35:35;102864.00;;;7.77;84.94
65131;BME280;51709;54.912;8.316;2023-02-11T13:41:00;102867.34;;;7.75;85.22
65131;BME280;51709;54.912;8.316;2023-02-11T13:46:22;102855.38;;;7.74;84.84
65131;BME280;51709;54.912;8.316;2023-02-11T13:51:43;102867.25;;;7.71;84.98
65131;BME280;51709;54.912;8.316;2023-02-11T14:02:40;102892.72;;;7.67;85.05
65131;BME280;51709;54.912;8.316;2023-02-11T14:08:24;102902.75;;;7.59;85.14
65131;BME280;51709;54.912;8.316;2023-02-11T14:14:14;102900.06;;;7.54;85.01
65131;BME280;51709;54.912;8.316;2023-02-11T14:19:41;102912.84;;;7.54;85.09
65131;BME280;51709;54.912;8.316;2023-02-11T14:25:17;102913.53;;;7.47;85.33
65131;BME280;51709;54.912;8.316;2023-02-11T14:30:45;102898.81;;;7.38;85.42
65131;BME280;51709;54.912;8.316;2023-02-11T14:36:22;102913.91;;;7.29;85.66
65131;BME280;51709;54.912;8.316;2023-02-11T14:41:48;102911.94;;;7.17;85.99
65131;BME280;51709;54.912;8.316;2023-02-11T14:47:22;102907.34;;;7.05;86.00
65131;BME280;51709;54.912;8.316;2023-02-11T14:52:47;102932.88;;;7.05;86.16
65131;BME280;51709;54.912;8.316;2023-02-11T14:58:22;102937.88;;;7.02;86.10
65131;BME280;51709;54.912;8.316;2023-02-11T15:03:47;102947.81;;;6.91;86.37
65131;BME280;51709;54.912;8.316;2023-02-11T15:09:22;102956.38;;;6.93;86.23
65131;BME280;51709;54.912;8.316;2023-02-11T15:14:49;102944.38;;;6.91;86.19
65131;BME280;51709;54.912;8.316;2023-02-11T15:20:26;102966.28;;;6.83;86.62
65131;BME280;51709;54.912;8.316;2023-02-11T15:25:51;102974.94;;;6.88;86.45
65131;BME280;51709;54.912;8.316;2023-02-11T15:31:17;102960.59;;;6.93;86.24
65131;BME280;51709;54.912;8.316;2023-02-11T15:36:39;102942.50;;;6.85;86.22
65131;BME280;51709;54.912;8.316;2023-02-11T15:42:26;102935.63;;;6.81;86.19
65131;BME280;51709;54.912;8.316;2023-02-11T15:47:49;102936.44;;;6.80;86.29
65131;BME280;51709;54.912;8.316;2023-02-11T15:58:52;102962.94;;;6.85;86.27
65131;BME280;51709;54.912;8.316;2023-02-11T16:04:22;102967.00;;;6.78;86.80
65131;BME280;51709;54.912;8.316;2023-02-11T16:09:44;102969.53;;;6.78;86.87
65131;BME280;51709;54.912;8.316;2023-02-11T16:20:54;102984.22;;;6.86;86.66
65131;BME280;51709;54.912;8.316;2023-02-11T16:26:35;102992.97;;;6.65;86.60
65131;BME280;51709;54.912;8.316;2023-02-11T16:32:24;102998.28;;;6.73;86.40
65131;BME280;51709;54.912;8.316;2023-02-11T16:37:47;103008.44;;;6.70;86.52
65131;BME280;51709;54.912;8.316;2023-02-11T16:43:07;103018.97;;;6.82;86.54
65131;BME280;51709;54.912;8.316;2023-02-11T16:48:29;103050.06;;;6.69;86.74
65131;BME280;51709;54.912;8.316;2023-02-11T16:53:51;103066.66;;;6.56;86.84
65131;BME280;51709;54.912;8.316;2023-02-11T16:59:12;103069.28;;;6.57;86.79
65131;BME280;51709;54.912;8.316;2023-02-11T17:04:33;103065.72;;;6.52;86.79
65131;BME280;51709;54.912;8.316;2023-02-11T17:09:55;103071.34;;;6.42;86.90
65131;BME280;51709;54.912;8.316;2023-02-11T17:15:16;103069.72;;;6.44;87.01
65131;BME280;51709;54.912;8.316;2023-02-11T17:20:40;103082.66;;;6.50;87.14
65131;BME280;51709;54.912;8.316;2023-02-11T17:26:00;103108.16;;;6.50;86.85
65131;BME280;51709;54.912;8.316;2023-02-11T17:31:21;103115.28;;;6.60;86.79
65131;BME280;51709;54.912;8.316;2023-02-11T17:36:42;103117.75;;;6.57;86.74
65131;BME280;51709;54.912;8.316;2023-02-11T17:42:04;103114.41;;;6.58;86.47
65131;BME280;51709;54.912;8.316;2023-02-11T17:47:25;103118.47;;;6.53;86.23
65131;BME280;51709;54.912;8.316;2023-02-11T17:52:55;103120.09;;;6.51;86.41
65131;BME280;51709;54.912;8.316;2023-02-11T17:58:16;103129.47;;;6.52;86.31
65131;BME280;51709;54.912;8.316;2023-02-11T18:03:37;103136.28;;;6.52;86.35
65131;BME280;51709;54.912;8.316;2023-02-11T18:08:58;103131.06;;;6.48;86.54
65131;BME280;51709;54.912;8.316;2023-02-11T18:14:21;103128.38;;;6.44;86.68
65131;BME280;51709;54.912;8.316;2023-02-11T18:19:42;103139.16;;;6.37;87.07
65131;BME280;51709;54.912;8.316;2023-02-11T18:25:03;103135.81;;;6.38;86.99
65131;BME280;51709;54.912;8.316;2023-02-11T18:30:24;103136.72;;;6.40;86.96
65131;BME280;51709;54.912;8.316;2023-02-11T18:35:45;103157.25;;;6.43;86.75
65131;BME280;51709;54.912;8.316;2023-02-11T18:41:09;103153.94;;;6.45;86.77
65131;BME280;51709;54.912;8.316;2023-02-11T18:46:29;103160.75;;;6.46;86.61
65131;BME280;51709;54.912;8.316;2023-02-11T18:51:50;103166.56;;;6.42;86.88
65131;BME280;51709;54.912;8.316;2023-02-11T18:57:10;103166.47;;;6.39;87.00
65131;BME280;51709;54.912;8.316;2023-02-11T19:02:31;103157.91;;;6.37;87.16
65131;BME280;51709;54.912;8.316;2023-02-11T19:07:51;103173.09;;;6.34;87.13
65131;BME280;51709;54.912;8.316;2023-02-11T19:13:12;103171.19;;;6.28;87.50
65131;BME280;51709;54.912;8.316;2023-02-11T19:18:34;103173.75;;;6.28;87.36
65131;BME280;51709;54.912;8.316;2023-02-11T19:23:55;103182.34;;;6.30;87.43
65131;BME280;51709;54.912;8.316;2023-02-11T19:29:16;103173.22;;;6.37;87.48
65131;BME280;51709;54.912;8.316;2023-02-11T19:34:37;103196.84;;;6.33;87.45
65131;BME280;51709;54.912;8.316;2023-02-11T19:40:00;103207.19;;;6.36;87.53
65131;BME280;51709;54.912;8.316;2023-02-11T19:45:21;103196.97;;;6.36;87.59
65131;BME280;51709;54.912;8.316;2023-02-11T19:50:41;103201.31;;;6.39;87.59
65131;BME280;51709;54.912;8.316;2023-02-11T19:56:03;103196.44;;;6.45;87.53
65131;BME280;51709;54.912;8.316;2023-02-11T20:01:27;103210.09;;;6.47;87.47
65131;BME280;51709;54.912;8.316;2023-02-11T20:06:47;103215.44;;;6.55;87.55
65131;BME280;51709;54.912;8.316;2023-02-11T20:12:08;103215.69;;;6.61;87.56
65131;BME280;51709;54.912;8.316;2023-02-11T20:17:31;103233.69;;;6.66;87.60
65131;BME280;51709;54.912;8.316;2023-02-11T20:22:54;103243.38;;;6.76;87.25
65131;BME280;51709;54.912;8.316;2023-02-11T20:28:15;103248.00;;;6.86;87.02
65131;BME280;51709;54.912;8.316;2023-02-11T20:33:36;103257.53;;;6.92;86.74
65131;BME280;51709;54.912;8.316;2023-02-11T20:39:00;103251.72;;;6.96;86.72
65131;BME280;51709;54.912;8.316;2023-02-11T20:44:27;103256.75;;;6.94;86.59
65131;BME280;51709;54.912;8.316;2023-02-11T20:49:48;103269.53;;;6.94;86.65
65131;BME280;51709;54.912;8.316;2023-02-11T20:55:12;103285.84;;;6.98;86.73
65131;BME280;51709;54.912;8.316;2023-02-11T21:00:34;103280.66;;;6.97;86.80
65131;BME280;51709;54.912;8.316;2023-02-11T21:05:58;103291.94;;;7.03;86.53
65131;BME280;51709;54.912;8.316;2023-02-11T21:11:22;103281.81;;;7.05;86.55
65131;BME280;51709;54.912;8.316;2023-02-11T21:16:44;103294.66;;;7.08;86.58
65131;BME280;51709;54.912;8.316;2023-02-11T21:22:06;103310.03;;;7.09;86.45
65131;BME280;51709;54.912;8.316;2023-02-11T21:27:29;103325.44;;;7.13;86.55
65131;BME280;51709;54.912;8.316;2023-02-11T21:32:53;103331.38;;;7.12;86.62
65131;BME280;51709;54.912;8.316;2023-02-11T21:38:17;103311.84;;;7.14;86.41
65131;BME280;51709;54.912;8.316;2023-02-11T21:43:38;103312.63;;;7.11;86.50
65131;BME280;51709;54.912;8.316;2023-02-11T21:48:58;103327.03;;;7.09;86.55
65131;BME280;51709;54.912;8.316;2023-02-11T21:54:19;103324.38;;;7.06;86.63
65131;BME280;51709;54.912;8.316;2023-02-11T21:59:40;103317.38;;;7.00;86.65
65131;BME280;51709;54.912;8.316;2023-02-11T22:05:01;103311.25;;;6.95;87.06
65131;BME280;51709;54.912;8.316;2023-02-11T22:10:22;103330.38;;;6.82;87.19
65131;BME280;51709;54.912;8.316;2023-02-11T22:15:56;103323.97;;;6.69;87.30
65131;BME280;51709;54.912;8.316;2023-02-11T22:21:21;103338.91;;;6.58;87.22
65131;BME280;51709;54.912;8.316;2023-02-11T22:26:43;103334.19;;;6.45;87.92
65131;BME280;51709;54.912;8.316;2023-02-11T22:32:08;103345.66;;;6.34;88.13
65131;BME280;51709;54.912;8.316;2023-02-11T22:37:29;103369.25;;;6.28;88.25
65131;BME280;51709;54.912;8.316;2023-02-11T22:42:51;103364.84;;;6.24;88.29
65131;BME280;51709;54.912;8.316;2023-02-11T22:48:12;103368.31;;;6.26;88.10
65131;BME280;51709;54.912;8.316;2023-02-11T22:53:33;103367.06;;;6.14;88.21
65131;BME280;51709;54.912;8.316;2023-02-11T22:59:06;103369.31;;;6.07;88.43
65131;BME280;51709;54.912;8.316;2023-02-11T23:04:34;103379.66;;;6.11;88.40
65131;BME280;51709;54.912;8.316;2023-02-11T23:09:57;103377.75;;;6.06;88.45
65131;BME280;51709;54.912;8.316;2023-02-11T23:15:23;103384.78;;;6.11;88.69
65131;BME280;51709;54.912;8.316;2023-02-11T23:20:50;103388.88;;;6.08;88.61
65131;BME280;51709;54.912;8.316;2023-02-11T23:26:23;103395.59;;;6.06;88.68
65131;BME280;51709;54.912;8.316;2023-02-11T23:31:45;103407.66;;;6.10;88.65
65131;BME280;51709;54.912;8.316;2023-02-11T23:37:07;103410.44;;;6.16;88.31
65131;BME280;51709;54.912;8.316;2023-02-11T23:42:28;103412.22;;;6.19;88.41
65131;BME280;51709;54.912;8.316;2023-02-11T23:47:48;103419.34;;;6.26;88.41
65131;BME280;51709;54.912;8.316;2023-02-11T23:53:10;103420.44;;;6.32;87.89
65131;BME280;51709;54.912;8.316;2023-02-11T23:58:30;103425.88;;;6.42;87.82
